Terminal Aerodrome Forecast
Issued by NWS Tallahassee, FL

Current Version | Previous Version | Text Only | Print | Product List | Glossary On
Versions: 1 2 3 4 5 6 7 8 9 10 11 12 13
000
FTUS42 KTAE 212300
TAFTLH
TAF
KTLH 212332Z 2200/2224 06004KT 5SM -RA BR OVC005
     FM220400 08003KT 3SM -RA BR OVC004
     FM220600 07004KT 1SM -RA BR OVC002
     FM221400 09004KT 3SM -DZ BR OVC005
     FM221800 12005KT P6SM OVC008=

USA.gov is the U.S. government's official web portal to all federal, state and local government web resources and services.